Latest Weather Observations for Normanton

IDQ60801

Issued at 7:05 pm EST Wednesday 23 April 2014 (issued every 30 minutes, with the page automatically refreshed every 10 minutes)

About weather observations | Map of weather stations | Latest weather observations for QLD | Other Formats
Station Details ID: 029063 Name: NORMANTON AIRPORT Lat: -17.69 Lon: 141.07 Height: 18.42 m
Data from the previous 72 hours. | See also: Recent months at Normanton
Date/Time
EST
Temp
°C
App
Temp
°C
Dew
Point
Rel
Hum
%
Delta-T
°C
Wind Press
QNH
hPa
Press
MSL
hPa
Rain
since 9 am
mm
Dir
 
Spd
km/h
Gust
km/h
Spd
kts
Gust
kts
23/07:00pm 23.9 24.9 22.2 90 1.1 SSE 20 28 11 15 1012.3 - 0.0
23/06:30pm 24.2 25.1 22.6 91 1.1 SSE 22 32 12 17 1012.2 - 0.0
23/06:00pm 24.3 25.3 22.9 92 0.9 S 22 26 12 14 1012.1 1012.0 0.0
23/05:30pm 24.5 25.8 22.6 89 1.3 SSE 20 28 11 15 1012.0 - 0.0
23/05:00pm 24.4 25.8 22.8 91 1.1 S 20 28 11 15 1011.9 - 0.0
23/04:30pm 24.8 25.8 22.9 89 1.3 SSE 22 30 12 16 1011.7 - 0.0
23/04:00pm 25.2 27.2 22.9 87 1.6 SSE 17 22 9 12 1011.4 - 0.0
23/03:30pm 25.1 27.3 23.2 89 1.3 SSE 17 22 9 12 1011.5 - 0.0
23/03:00pm 24.9 26.7 23.3 91 1.1 SSE 19 28 10 15 1011.4 1011.3 0.0
23/02:30pm 25.1 26.4 22.4 85 1.8 SSE 19 22 10 12 1011.6 - 0.0
23/02:00pm 25.4 27.5 22.5 84 2.0 S 15 19 8 10 1012.0 - 0.0
23/01:30pm 25.7 28.0 22.8 84 2.0 S 15 20 8 11 1012.5 - 0.0
23/01:00pm 26.1 28.8 22.8 82 2.2 SSE 13 17 7 9 1012.9 - 0.0
23/12:30pm 26.9 29.6 22.1 75 3.2 SE 11 20 6 11 1013.0 - 0.0
23/12:00pm 26.3 28.7 22.2 78 2.8 SSE 13 22 7 12 1013.4 1013.2 0.0
23/11:30am 26.0 27.9 22.1 79 2.6 SSE 15 20 8 11 1013.8 - 0.0
23/11:00am 25.8 28.4 22.7 83 2.1 SE 13 19 7 10 1014.0 - 0.0
23/10:30am 25.6 27.8 21.9 80 2.5 SE 13 22 7 12 1014.0 - 0.0
23/10:00am 25.6 27.8 23.3 87 1.6 SSE 17 22 9 12 1014.1 - 0.0
23/09:30am 24.8 28.2 23.4 92 1.0 SSE 11 19 6 10 1013.8 - 0.0
23/09:00am 24.3 27.4 22.9 92 0.9 SSE 11 19 6 10 1013.7 1013.5 72.4
23/08:30am 23.8 27.2 23.3 97 0.3 SE 11 15 6 8 1013.2 - 72.4
23/08:00am 23.5 27.3 23.5 100 0.0 SE 9 13 5 7 1013.1 - 72.4
23/07:30am 23.2 27.3 23.2 100 0.0 SE 7 9 4 5 1012.7 - 72.4
23/07:00am 23.0 26.9 23.0 100 0.0 SE 7 11 4 6 1012.4 - 72.4
23/06:30am 23.2 26.4 23.0 99 0.1 SSE 11 15 6 8 1012.2 - 72.0
23/06:00am 23.4 26.4 22.7 96 0.5 SE 11 17 6 9 1011.7 1011.6 72.0
23/05:30am 23.3 26.3 22.6 96 0.5 SE 11 19 6 10 1011.2 - 72.0
23/05:00am 23.3 26.0 22.8 97 0.3 SE 13 20 7 11 1011.2 - 72.0
23/04:30am 23.3 26.0 22.8 97 0.3 SE 13 19 7 10 1011.3 - 72.0
23/04:00am 23.2 26.0 23.0 99 0.1 SE 13 19 7 10 1011.2 - 72.0
23/03:30am 23.2 26.5 23.2 100 0.0 SE 11 17 6 9 1011.1 - 72.0
23/03:00am 23.2 25.7 23.2 100 0.0 SE 15 22 8 12 1011.2 1011.0 72.0
23/02:30am 23.1 25.6 23.1 100 0.0 SE 15 22 8 12 1011.4 - 72.0
23/02:00am 23.2 26.1 23.2 100 0.0 SE 13 20 7 11 1011.9 - 72.0
23/01:30am 23.1 26.0 23.1 100 0.0 SE 13 20 7 11 1012.2 - 72.0
23/01:00am 23.0 25.4 23.0 100 0.0 SE 15 22 8 12 1012.5 - 72.0
23/12:30am 23.1 25.6 23.1 100 0.0 SE 15 24 8 13 1013.0 - 72.0
23/12:00am 23.1 25.2 23.1 100 0.0 SE 17 28 9 15 1013.3 1013.1 72.0
 
Date/Time
EST
Temp
°C
App
Temp
°C
Dew
Point
Rel
Hum
%
Delta-T
°C
Wind Press
QNH
hPa
Press
MSL
hPa
Rain
since 9 am
mm
Dir
 
Spd
km/h
Gust
km/h
Spd
kts
Gust
kts
22/11:30pm 23.3 25.9 23.3 100 0.0 SE 15 24 8 13 1013.5 - 72.0
22/11:00pm 23.6 25.6 23.6 100 0.0 SE 19 32 10 17 1013.6 - 72.0
22/10:30pm 23.6 25.4 23.6 100 0.0 S 20 24 11 13 1013.6 - 71.4
22/10:00pm 23.7 25.8 23.7 100 0.0 S 19 26 10 14 1013.8 - 70.4
22/09:30pm 23.6 26.7 23.6 100 0.0 SSW 13 17 7 9 1014.3 - 69.4
22/09:00pm 23.5 26.2 23.5 100 0.0 S 15 20 8 11 1014.2 1014.0 68.2
22/08:30pm 23.3 26.7 23.3 100 0.0 SSW 11 15 6 8 1014.1 - 65.0
22/08:00pm 23.3 26.7 23.3 100 0.0 SSW 11 13 6 7 1013.9 - 59.2
22/07:30pm 23.4 27.6 23.4 100 0.0 SSW 7 9 4 5 1013.7 - 44.8
22/07:00pm 23.4 27.6 23.4 100 0.0 ESE 7 11 4 6 1013.6 - 30.2
22/06:30pm 23.7 27.7 23.7 100 0.0 N 9 13 5 7 1013.3 - 19.2
22/06:00pm 24.2 28.5 24.2 100 0.0 NE 9 17 5 9 1013.1 1013.0 7.6
22/05:30pm 25.6 29.4 24.0 91 1.1 NW 11 15 6 8 1012.0 - 0.0
22/05:00pm 27.8 30.3 21.1 67 4.4 SE 9 17 5 9 1011.6 - 0.0
22/04:30pm 29.2 30.6 20.4 59 5.8 SE 13 20 7 11 1011.2 - 0.0
22/04:00pm 29.7 31.1 20.3 57 6.2 SE 13 20 7 11 1011.0 - 0.0
22/03:30pm 29.6 30.8 20.7 58 5.9 SE 15 22 8 12 1011.2 - 0.0
22/03:00pm 29.6 31.5 20.5 58 6.0 ESE 11 17 6 9 1011.2 1011.0 0.0
22/02:30pm 30.0 31.9 20.5 56 6.3 ESE 11 19 6 10 1011.4 - 0.0
22/02:00pm 30.4 32.3 20.6 55 6.5 SE 11 15 6 8 1011.8 - 0.0
22/01:30pm 30.5 32.3 20.4 54 6.7 SSE 11 17 6 9 1012.2 - 0.0
22/01:00pm 30.8 32.6 20.4 54 6.9 ESE 11 17 6 9 1012.6 - 0.0
22/12:30pm 30.4 31.3 20.0 53 6.9 E 15 24 8 13 1013.0 - 0.0
22/12:00pm 30.1 31.9 20.4 56 6.4 E 11 20 6 11 1013.5 1013.2 0.0
22/11:30am 30.2 31.2 20.2 55 6.6 E 15 24 8 13 1014.0 - 0.0
22/11:00am 29.4 30.1 19.7 56 6.3 E 15 22 8 12 1014.6 - 0.0
22/10:30am 30.0 31.1 20.5 56 6.3 E 15 20 8 11 1014.8 - 0.0
22/10:00am 28.3 29.5 20.6 63 5.1 E 15 24 8 13 1014.8 - 0.0
22/09:30am 28.0 29.5 20.6 64 4.9 E 13 24 7 13 1014.8 - 0.0
22/09:00am 27.7 29.0 20.8 66 4.6 E 15 22 8 12 1014.5 1014.4 0.0
22/08:30am 26.6 29.3 21.4 73 3.5 E 9 15 5 8 1014.4 - 0.0
22/08:00am 25.3 28.9 23.0 87 1.6 ESE 9 15 5 8 1014.4 - 0.0
22/07:30am 24.6 28.1 22.8 90 1.2 E 9 15 5 8 1014.1 - 0.0
22/07:00am 24.9 28.1 22.4 86 1.7 E 9 13 5 7 1013.8 - 0.0
22/06:30am 25.0 28.6 22.3 85 1.8 ENE 7 11 4 6 1013.6 - 0.0
22/06:00am 25.1 28.6 22.2 84 1.9 ENE 7 11 4 6 1013.4 1013.2 0.0
22/05:30am 25.1 28.2 22.2 84 1.9 ENE 9 13 5 7 1013.1 - 0.0
22/05:00am 25.3 28.3 22.0 82 2.2 NE 9 15 5 8 1012.9 - 0.0
22/04:30am 25.5 28.0 21.8 80 2.5 NE 11 20 6 11 1012.9 - 0.0
22/04:00am 25.7 27.5 21.8 79 2.6 NNE 15 24 8 13 1012.8 - 0.0
22/03:30am 25.9 28.5 22.0 79 2.6 NE 11 20 6 11 1012.8 - 0.0
22/03:00am 26.1 28.2 22.4 80 2.5 NE 15 24 8 13 1012.8 1012.6 0.0
22/02:30am 26.4 28.1 22.3 78 2.8 NE 17 24 9 13 1012.9 - 0.0
22/02:00am 26.2 27.6 21.8 77 2.9 NE 17 22 9 12 1012.8 - 0.0
22/01:30am 27.4 27.9 20.0 64 4.8 NE 17 24 9 13 1012.7 - 0.0
22/01:00am 28.1 28.7 17.6 53 6.6 NE 11 17 6 9 1012.8 - 0.0
22/12:30am 28.1 29.3 17.3 52 6.8 ENE 7 9 4 5 1012.9 - 0.0
22/12:00am 27.9 29.2 17.1 51 6.8 E 6 9 3 5 1013.1 1012.9 0.0
 
Date/Time
EST
Temp
°C
App
Temp
°C
Dew
Point
Rel
Hum
%
Delta-T
°C
Wind Press
QNH
hPa
Press
MSL
hPa
Rain
since 9 am
mm
Dir
 
Spd
km/h
Gust
km/h
Spd
kts
Gust
kts
21/11:30pm 28.1 29.8 16.1 48 7.4 SSE 2 7 1 4 1013.0 - 0.0
21/11:00pm 28.5 28.7 14.3 41 8.5 SSE 6 7 3 4 1013.1 - 0.0
21/10:30pm 28.4 28.4 14.3 42 8.5 S 7 9 4 5 1013.0 - 0.0
21/10:00pm 28.5 29.3 14.7 43 8.4 SSW 4 7 2 4 1013.1 - 0.0
21/09:30pm 28.8 28.8 14.2 40 8.8 SSW 7 9 4 5 1013.0 - 0.0
21/09:00pm 28.6 28.6 15.2 44 8.2 SSW 9 11 5 6 1012.8 1012.6 0.0
21/08:30pm 28.2 28.7 15.5 46 7.8 SSW 7 9 4 5 1012.5 - 0.0
21/08:00pm 27.2 29.2 15.9 50 6.9 CALM 0 0 0 0 1012.4 - 0.0
21/07:30pm 28.5 30.7 16.4 48 7.5 CALM 0 0 0 0 1012.1 - 0.0
21/07:00pm 29.2 30.8 15.0 42 8.7 CALM 0 0 0 0 1012.0 - 0.0
21/06:30pm 30.1 31.6 14.6 39 9.4 CALM 0 6 0 3 1011.9 - 0.0
21/06:00pm 31.4 31.4 14.1 35 10.5 ESE 7 11 4 6 1011.7 1011.5 0.0
21/05:30pm 32.2 31.7 13.9 33 11.1 ESE 9 17 5 9 1011.4 - 0.0
21/05:00pm 33.3 33.2 13.9 31 11.8 SW 7 11 4 6 1011.3 - 0.0
21/04:30pm 33.1 32.2 13.7 31 11.8 ESE 11 15 6 8 1011.1 - 0.0
21/04:00pm 33.3 31.9 13.4 30 12.0 SE 13 20 7 11 1011.0 - 0.0
21/03:30pm 33.1 32.2 13.7 31 11.8 ESE 11 20 6 11 1011.0 - 0.0
21/03:00pm 33.3 32.1 13.9 31 11.8 ESE 13 22 7 12 1011.0 1010.8 0.0
21/02:30pm 33.2 32.9 14.3 32 11.6 SSE 9 19 5 10 1011.1 - 0.0
21/02:00pm 32.3 31.9 14.0 33 11.1 SSE 9 24 5 13 1011.4 - 0.0
21/01:30pm 32.0 30.2 13.2 31 11.3 ESE 15 28 8 15 1011.7 - 0.0
21/01:00pm 31.8 30.6 14.0 34 10.8 ENE 13 20 7 11 1012.1 - 0.0
21/12:30pm 31.7 30.9 15.2 36 10.2 ESE 13 20 7 11 1012.6 - 0.0
21/12:00pm 31.3 30.9 15.3 38 9.9 E 11 20 6 11 1013.2 1013.0 0.0
21/11:30am 30.9 30.5 16.1 41 9.2 ESE 13 20 7 11 1013.8 - 0.0
21/11:00am 29.6 29.0 15.7 43 8.6 E 13 24 7 13 1014.2 - 0.0
21/10:30am 28.6 27.9 15.5 45 8.0 E 13 19 7 10 1014.4 - 0.0
21/10:00am 27.9 27.5 16.2 49 7.2 ESE 13 20 7 11 1014.5 - 0.0
21/09:30am 27.0 26.4 15.7 50 6.9 E 13 24 7 13 1014.3 - 0.0
21/09:00am 25.8 25.3 15.8 54 6.1 E 13 20 7 11 1014.2 1013.9 0.0
21/08:30am 24.9 24.5 15.2 54 5.8 E 11 17 6 9 1013.8 - 0.0
21/08:00am 23.5 23.8 15.0 59 5.1 E 7 11 4 6 1013.8 - 0.0
21/07:30am 22.3 22.7 15.2 64 4.2 E 7 11 4 6 1013.8 - 0.0
21/07:00am 21.6 21.6 15.2 67 3.8 ESE 9 13 5 7 1013.6 - 0.0
21/06:30am 21.6 22.0 15.4 68 3.7 ESE 7 11 4 6 1013.2 - 0.0
21/06:00am 21.2 21.8 15.7 71 3.3 ESE 7 9 4 5 1012.9 1012.8 0.0
21/05:30am 21.1 21.9 15.9 72 3.1 E 6 7 3 4 1012.7 - 0.0
21/05:00am 21.6 22.2 15.9 70 3.4 E 7 9 4 5 1012.6 - 0.0
21/04:30am 22.0 22.7 16.1 69 3.6 E 7 11 4 6 1012.6 - 0.0
21/04:00am 22.5 23.1 15.8 66 4.0 E 7 11 4 6 1012.5 - 0.0
21/03:30am 23.0 23.5 15.6 63 4.4 E 7 9 4 5 1012.4 - 0.0
21/03:00am 23.5 23.9 15.3 60 4.9 ENE 7 11 4 6 1012.3 1012.2 0.0
21/02:30am 24.5 24.5 15.1 55 5.6 ENE 9 17 5 9 1012.2 - 0.0
21/02:00am 25.4 25.1 15.4 54 6.0 NE 11 17 6 9 1012.2 - 0.0
21/01:30am 26.0 26.1 15.4 52 6.4 NE 9 15 5 8 1012.3 - 0.0
21/01:00am 26.6 26.2 16.2 52 6.4 NE 13 19 7 10 1012.6 - 0.0
21/12:30am 25.9 28.1 20.5 72 3.5 NE 9 13 5 7 1012.8 - 0.0
21/12:00am 25.9 28.9 21.3 76 3.0 ENE 7 9 4 5 1012.8 1012.6 0.0
 
Date/Time
EST
Temp
°C
App
Temp
°C
Dew
Point
Rel
Hum
%
Delta-T
°C
Wind Press
QNH
hPa
Press
MSL
hPa
Rain
since 9 am
mm
Dir
 
Spd
km/h
Gust
km/h
Spd
kts
Gust
kts
20/11:30pm 26.0 30.4 21.4 76 3.1 CALM 0 0 0 0 1012.8 - 0.0
20/11:00pm 27.1 30.5 21.6 72 3.7 NW 6 7 3 4 1012.9 - 0.0
20/10:30pm 27.2 30.3 21.5 71 3.8 WNW 7 9 4 5 1012.7 - 0.0
20/10:00pm 27.7 30.4 21.3 68 4.3 NNW 9 11 5 6 1012.7 - 0.0
20/09:30pm 28.0 30.8 20.8 65 4.8 WNW 7 9 4 5 1012.8 - 0.0
20/09:00pm 28.4 31.8 20.1 60 5.4 W 2 9 1 5 1012.6 1012.4 0.0
20/08:30pm 29.2 30.5 17.1 48 7.6 E 6 7 3 4 1012.4 - 0.0
20/08:00pm 29.2 30.3 16.7 46 7.8 ESE 6 7 3 4 1011.9 - 0.0
20/07:30pm 29.9 31.2 17.0 45 8.1 E 6 7 3 4 1011.6 - 0.0

Other Formats:

Comma delimited format used in spreadsheet applications
http://www.bom.gov.au/fwo/IDQ60801/IDQ60801.94266.axf

JavaScript Object Notation format (JSON) in row-major order
http://www.bom.gov.au/fwo/IDQ60801/IDQ60801.94266.json